sensor_id;sensor_type;location;lat;lon;timestamp;pressure;altitude;pressure_sealevel;temperature;humidity
65173;BME280;69059;52.218;5.172;2023-04-06T00:01:45;101393.44;;;3.94;100.00
65173;BME280;69059;52.218;5.172;2023-04-06T00:04:14;101384.44;;;3.89;100.00
65173;BME280;69059;52.218;5.172;2023-04-06T00:06:42;101380.31;;;3.86;100.00
65173;BME280;69059;52.218;5.172;2023-04-06T00:09:10;101376.22;;;3.84;100.00
65173;BME280;69059;52.218;5.172;2023-04-06T00:11:37;101372.09;;;3.81;100.00
65173;BME280;69059;52.218;5.172;2023-04-06T00:14:05;101363.69;;;3.79;100.00
65173;BME280;69059;52.218;5.172;2023-04-06T00:16:33;101354.19;;;3.69;100.00
65173;BME280;69059;52.218;5.172;2023-04-06T00:19:01;101369.78;;;3.78;100.00
65173;BME280;69059;52.218;5.172;2023-04-06T00:21:30;101366.50;;;3.76;100.00
65173;BME280;69059;52.218;5.172;2023-04-06T00:23:58;101368.25;;;3.76;100.00
65173;BME280;69059;52.218;5.172;2023-04-06T00:26:26;101366.16;;;3.70;100.00
65173;BME280;69059;52.218;5.172;2023-04-06T00:28:54;101360.28;;;3.68;100.00
65173;BME280;69059;52.218;5.172;2023-04-06T00:31:21;101360.16;;;3.69;100.00
65173;BME280;69059;52.218;5.172;2023-04-06T00:33:49;101354.56;;;3.64;100.00
65173;BME280;69059;52.218;5.172;2023-04-06T00:36:17;101355.38;;;3.65;100.00
65173;BME280;69059;52.218;5.172;2023-04-06T00:38:46;101355.63;;;3.62;100.00
65173;BME280;69059;52.218;5.172;2023-04-06T00:41:14;101354.91;;;3.59;100.00
65173;BME280;69059;52.218;5.172;2023-04-06T00:43:41;101346.34;;;3.59;100.00
65173;BME280;69059;52.218;5.172;2023-04-06T00:46:09;101345.53;;;3.58;100.00
65173;BME280;69059;52.218;5.172;2023-04-06T00:48:37;101336.94;;;3.58;100.00
65173;BME280;69059;52.218;5.172;2023-04-06T00:51:05;101334.38;;;3.58;100.00
65173;BME280;69059;52.218;5.172;2023-04-06T00:53:33;101336.94;;;3.58;100.00
65173;BME280;69059;52.218;5.172;2023-04-06T00:56:02;101335.31;;;3.57;100.00
65173;BME280;69059;52.218;5.172;2023-04-06T00:58:30;101330.84;;;3.59;100.00
65173;BME280;69059;52.218;5.172;2023-04-06T01:00:58;101330.16;;;3.57;100.00
65173;BME280;69059;52.218;5.172;2023-04-06T01:03:27;101319.81;;;3.57;100.00
65173;BME280;69059;52.218;5.172;2023-04-06T01:05:54;101324.88;;;3.58;100.00
65173;BME280;69059;52.218;5.172;2023-04-06T01:08:24;101311.00;;;3.59;100.00
65173;BME280;69059;52.218;5.172;2023-04-06T01:10:52;101315.59;;;3.56;100.00
65173;BME280;69059;52.218;5.172;2023-04-06T01:13:21;101305.06;;;3.48;100.00
65173;BME280;69059;52.218;5.172;2023-04-06T01:15:49;101308.94;;;3.53;100.00
65173;BME280;69059;52.218;5.172;2023-04-06T01:18:17;101303.78;;;3.53;100.00
65173;BME280;69059;52.218;5.172;2023-04-06T01:20:44;101312.66;;;3.60;100.00
65173;BME280;69059;52.218;5.172;2023-04-06T01:23:14;101327.69;;;3.44;100.00
65173;BME280;69059;52.218;5.172;2023-04-06T01:25:41;101310.81;;;3.51;100.00
65173;BME280;69059;52.218;5.172;2023-04-06T01:28:09;101323.72;;;3.51;100.00
65173;BME280;69059;52.218;5.172;2023-04-06T01:30:37;101333.94;;;3.42;100.00
65173;BME280;69059;52.218;5.172;2023-04-06T01:33:04;101343.69;;;3.38;100.00
65173;BME280;69059;52.218;5.172;2023-04-06T01:35:32;101352.69;;;3.44;100.00
65173;BME280;69059;52.218;5.172;2023-04-06T01:38:00;101364.44;;;3.48;100.00
65173;BME280;69059;52.218;5.172;2023-04-06T01:40:30;101333.09;;;3.52;100.00
65173;BME280;69059;52.218;5.172;2023-04-06T01:42:57;101353.38;;;3.57;100.00
65173;BME280;69059;52.218;5.172;2023-04-06T01:45:25;101357.50;;;3.59;100.00
65173;BME280;69059;52.218;5.172;2023-04-06T01:47:53;101345.53;;;3.58;100.00
65173;BME280;69059;52.218;5.172;2023-04-06T01:50:21;101345.06;;;3.65;100.00
65173;BME280;69059;52.218;5.172;2023-04-06T01:52:49;101342.66;;;3.73;100.00
65173;BME280;69059;52.218;5.172;2023-04-06T01:55:17;101327.66;;;3.78;100.00
65173;BME280;69059;52.218;5.172;2023-04-06T01:57:46;101343.72;;;3.70;100.00
65173;BME280;69059;52.218;5.172;2023-04-06T02:00:15;101360.53;;;3.65;100.00
65173;BME280;69059;52.218;5.172;2023-04-06T02:02:42;101364.50;;;3.69;100.00
65173;BME280;69059;52.218;5.172;2023-04-06T02:05:10;101360.88;;;3.71;100.00
65173;BME280;69059;52.218;5.172;2023-04-06T02:07:38;101355.47;;;3.74;100.00
65173;BME280;69059;52.218;5.172;2023-04-06T02:10:11;101359.09;;;3.72;100.00
65173;BME280;69059;52.218;5.172;2023-04-06T02:12:39;101357.00;;;3.77;100.00
65173;BME280;69059;52.218;5.172;2023-04-06T02:15:09;101366.50;;;3.76;100.00
65173;BME280;69059;52.218;5.172;2023-04-06T02:17:39;101362.59;;;3.82;100.00
65173;BME280;69059;52.218;5.172;2023-04-06T02:20:08;101365.06;;;3.83;100.00
65173;BME280;69059;52.218;5.172;2023-04-06T02:22:35;101365.66;;;3.87;100.00
65173;BME280;69059;52.218;5.172;2023-04-06T02:25:04;101368.94;;;3.89;100.00
65173;BME280;69059;52.218;5.172;2023-04-06T02:27:32;101361.06;;;3.90;100.00
65173;BME280;69059;52.218;5.172;2023-04-06T02:29:59;101373.59;;;3.95;100.00
65173;BME280;69059;52.218;5.172;2023-04-06T02:32:28;101378.28;;;4.01;100.00
65173;BME280;69059;52.218;5.172;2023-04-06T02:34:56;101377.56;;;4.10;100.00
65173;BME280;69059;52.218;5.172;2023-04-06T02:37:24;101372.03;;;4.15;100.00
65173;BME280;69059;52.218;5.172;2023-04-06T02:39:51;101381.59;;;4.24;100.00
65173;BME280;69059;52.218;5.172;2023-04-06T02:42:19;101375.25;;;4.28;100.00
65173;BME280;69059;52.218;5.172;2023-04-06T02:44:47;101378.53;;;4.30;100.00
65173;BME280;69059;52.218;5.172;2023-04-06T02:47:14;101376.50;;;4.33;100.00
65173;BME280;69059;52.218;5.172;2023-04-06T02:49:43;101371.22;;;4.35;100.00
65173;BME280;69059;52.218;5.172;2023-04-06T02:52:13;101381.19;;;4.40;100.00
65173;BME280;69059;52.218;5.172;2023-04-06T02:54:41;101380.38;;;4.39;100.00
65173;BME280;69059;52.218;5.172;2023-04-06T02:57:09;101372.50;;;4.41;100.00
65173;BME280;69059;52.218;5.172;2023-04-06T02:59:37;101356.53;;;4.36;100.00
65173;BME280;69059;52.218;5.172;2023-04-06T03:02:05;101365.28;;;4.44;100.00
65173;BME280;69059;52.218;5.172;2023-04-06T03:04:32;101349.94;;;4.43;100.00
65173;BME280;69059;52.218;5.172;2023-04-06T03:07:01;101355.22;;;4.41;100.00
65173;BME280;69059;52.218;5.172;2023-04-06T03:09:29;101358.50;;;4.43;100.00
65173;BME280;69059;52.218;5.172;2023-04-06T03:11:56;101352.50;;;4.43;100.00
65173;BME280;69059;52.218;5.172;2023-04-06T03:14:24;101343.84;;;4.32;100.00
65173;BME280;69059;52.218;5.172;2023-04-06T03:16:52;101359.19;;;4.45;100.00
65173;BME280;69059;52.218;5.172;2023-04-06T03:19:19;101346.13;;;4.47;100.00
65173;BME280;69059;52.218;5.172;2023-04-06T03:21:47;101300.03;;;4.10;100.00
65173;BME280;69059;52.218;5.172;2023-04-06T03:24:16;101350.47;;;4.46;100.00
65173;BME280;69059;52.218;5.172;2023-04-06T03:26:44;101342.03;;;4.44;100.00
65173;BME280;69059;52.218;5.172;2023-04-06T03:29:12;101334.41;;;4.43;100.00
65173;BME280;69059;52.218;5.172;2023-04-06T03:31:39;101333.13;;;4.37;100.00
65173;BME280;69059;52.218;5.172;2023-04-06T03:34:07;101318.91;;;4.43;100.00
65173;BME280;69059;52.218;5.172;2023-04-06T03:36:35;101317.06;;;4.33;100.00
65173;BME280;69059;52.218;5.172;2023-04-06T03:39:03;101313.28;;;4.38;100.00
65173;BME280;69059;52.218;5.172;2023-04-06T03:41:32;101300.13;;;4.41;100.00
65173;BME280;69059;52.218;5.172;2023-04-06T03:43:59;101296.00;;;4.38;100.00
65173;BME280;69059;52.218;5.172;2023-04-06T03:46:28;101294.94;;;4.41;100.00
65173;BME280;69059;52.218;5.172;2023-04-06T03:48:56;101290.13;;;4.36;100.00
65173;BME280;69059;52.218;5.172;2023-04-06T03:51:24;101284.84;;;4.38;100.00
65173;BME280;69059;52.218;5.172;2023-04-06T03:53:52;101293.09;;;4.31;100.00
65173;BME280;69059;52.218;5.172;2023-04-06T03:56:20;101279.09;;;4.34;100.00
65173;BME280;69059;52.218;5.172;2023-04-06T03:58:49;101284.16;;;4.36;100.00
65173;BME280;69059;52.218;5.172;2023-04-06T04:01:17;101278.16;;;4.35;100.00
65173;BME280;69059;52.218;5.172;2023-04-06T04:03:45;101279.09;;;4.34;100.00
65173;BME280;69059;52.218;5.172;2023-04-06T04:06:16;101264.59;;;4.22;100.00
65173;BME280;69059;52.218;5.172;2023-04-06T04:08:44;101271.59;;;4.31;100.00
65173;BME280;69059;52.218;5.172;2023-04-06T04:11:11;101268.88;;;4.32;100.00
65173;BME280;69059;52.218;5.172;2023-04-06T04:13:39;101256.41;;;4.38;100.00
65173;BME280;69059;52.218;5.172;2023-04-06T04:16:08;101270.41;;;4.35;100.00
65173;BME280;69059;52.218;5.172;2023-04-06T04:18:36;101261.25;;;4.31;100.00
65173;BME280;69059;52.218;5.172;2023-04-06T04:21:03;101241.47;;;4.20;100.00
65173;BME280;69059;52.218;5.172;2023-04-06T04:23:31;101255.91;;;4.23;100.00
65173;BME280;69059;52.218;5.172;2023-04-06T04:26:02;101261.44;;;4.18;100.00
65173;BME280;69059;52.218;5.172;2023-04-06T04:28:29;101253.06;;;4.26;100.00
65173;BME280;69059;52.218;5.172;2023-04-06T04:30:57;101258.25;;;4.26;100.00
65173;BME280;69059;52.218;5.172;2023-04-06T04:33:26;101250.91;;;4.31;100.00
65173;BME280;69059;52.218;5.172;2023-04-06T04:35:53;101244.13;;;4.30;100.00
65173;BME280;69059;52.218;5.172;2023-04-06T04:38:21;101242.50;;;4.29;100.00
65173;BME280;69059;52.218;5.172;2023-04-06T04:40:49;101246.16;;;4.26;100.00
65173;BME280;69059;52.218;5.172;2023-04-06T04:43:17;101244.88;;;4.21;100.00
65173;BME280;69059;52.218;5.172;2023-04-06T04:45:44;101235.22;;;4.23;100.00
65173;BME280;69059;52.218;5.172;2023-04-06T04:48:12;101234.75;;;4.29;100.00
65173;BME280;69059;52.218;5.172;2023-04-06T04:50:41;101232.41;;;4.26;100.00
65173;BME280;69059;52.218;5.172;2023-04-06T04:53:08;101225.47;;;4.26;100.00
65173;BME280;69059;52.218;5.172;2023-04-06T04:55:36;101221.81;;;4.29;100.00
65173;BME280;69059;52.218;5.172;2023-04-06T04:58:04;101224.41;;;4.29;100.00
65173;BME280;69059;52.218;5.172;2023-04-06T05:00:31;101227.53;;;4.32;100.00
65173;BME280;69059;52.218;5.172;2023-04-06T05:02:59;101219.22;;;4.29;100.00
65173;BME280;69059;52.218;5.172;2023-04-06T05:05:27;101223.31;;;4.31;100.00
65173;BME280;69059;52.218;5.172;2023-04-06T05:07:56;101230.94;;;4.33;100.00
65173;BME280;69059;52.218;5.172;2023-04-06T05:10:24;101212.59;;;4.36;100.00
65173;BME280;69059;52.218;5.172;2023-04-06T05:12:52;101221.03;;;4.38;100.00
65173;BME280;69059;52.218;5.172;2023-04-06T05:15:19;101227.84;;;4.39;100.00
65173;BME280;69059;52.218;5.172;2023-04-06T05:17:47;101230.34;;;4.50;100.00
65173;BME280;69059;52.218;5.172;2023-04-06T05:20:15;101224.50;;;4.58;100.00
65173;BME280;69059;52.218;5.172;2023-04-06T05:22:43;101238.94;;;4.51;100.00
65173;BME280;69059;52.218;5.172;2023-04-06T05:25:12;101235.97;;;4.55;100.00
65173;BME280;69059;52.218;5.172;2023-04-06T05:27:40;101239.09;;;4.59;100.00
65173;BME280;69059;52.218;5.172;2023-04-06T05:30:09;101240.47;;;4.63;100.00
65173;BME280;69059;52.218;5.172;2023-04-06T05:32:36;101235.75;;;4.68;100.00
65173;BME280;69059;52.218;5.172;2023-04-06T05:35:05;101240.50;;;4.73;100.00
65173;BME280;69059;52.218;5.172;2023-04-06T05:37:32;101245.69;;;4.73;100.00
65173;BME280;69059;52.218;5.172;2023-04-06T05:40:00;101241.59;;;4.70;100.00
65173;BME280;69059;52.218;5.172;2023-04-06T05:42:36;101240.00;;;4.79;100.00
65173;BME280;69059;52.218;5.172;2023-04-06T05:45:04;101243.28;;;4.81;100.00
65173;BME280;69059;52.218;5.172;2023-04-06T05:47:32;101237.41;;;4.79;100.00
65173;BME280;69059;52.218;5.172;2023-04-06T05:50:00;101238.09;;;4.81;100.00
65173;BME280;69059;52.218;5.172;2023-04-06T05:52:28;101238.78;;;4.83;100.00
65173;BME280;69059;52.218;5.172;2023-04-06T05:54:55;101234.03;;;4.88;100.00
65173;BME280;69059;52.218;5.172;2023-04-06T05:57:23;101228.84;;;4.88;100.00
65173;BME280;69059;52.218;5.172;2023-04-06T05:59:52;101245.47;;;4.95;100.00
65173;BME280;69059;52.218;5.172;2023-04-06T06:02:20;101241.31;;;5.03;100.00
65173;BME280;69059;52.218;5.172;2023-04-06T06:04:48;101239.00;;;5.10;100.00
65173;BME280;69059;52.218;5.172;2023-04-06T06:07:16;101246.47;;;5.03;100.00
65173;BME280;69059;52.218;5.172;2023-04-06T06:09:44;101250.84;;;5.13;100.00
65173;BME280;69059;52.218;5.172;2023-04-06T06:12:12;101248.97;;;5.24;100.00
65173;BME280;69059;52.218;5.172;2023-04-06T06:14:40;101227.56;;;5.13;100.00
65173;BME280;69059;52.218;5.172;2023-04-06T06:17:09;101253.91;;;5.37;100.00
65173;BME280;69059;52.218;5.172;2023-04-06T06:19:36;101254.59;;;5.49;100.00
65173;BME280;69059;52.218;5.172;2023-04-06T06:22:04;101251.09;;;5.69;100.00
65173;BME280;69059;52.218;5.172;2023-04-06T06:24:32;101255.81;;;5.83;100.00
65173;BME280;69059;52.218;5.172;2023-04-06T06:27:00;101267.97;;;5.73;100.00
65173;BME280;69059;52.218;5.172;2023-04-06T06:29:28;101262.16;;;5.90;100.00
65173;BME280;69059;52.218;5.172;2023-04-06T06:31:56;101267.00;;;5.84;100.00
65173;BME280;69059;52.218;5.172;2023-04-06T06:34:25;101269.22;;;5.79;100.00
65173;BME280;69059;52.218;5.172;2023-04-06T06:36:52;101267.69;;;5.86;100.00
65173;BME280;69059;52.218;5.172;2023-04-06T06:39:21;101269.09;;;5.90;100.00
65173;BME280;69059;52.218;5.172;2023-04-06T06:41:49;101271.69;;;5.99;100.00
65173;BME280;69059;52.218;5.172;2023-04-06T06:44:16;101274.97;;;6.01;100.00
65173;BME280;69059;52.218;5.172;2023-04-06T06:46:44;101267.97;;;6.11;100.00
65173;BME280;69059;52.218;5.172;2023-04-06T06:49:12;101272.34;;;6.11;100.00
65173;BME280;69059;52.218;5.172;2023-04-06T06:51:42;101271.66;;;6.09;100.00
65173;BME280;69059;52.218;5.172;2023-04-06T06:54:09;101263.22;;;6.17;100.00
65173;BME280;69059;52.218;5.172;2023-04-06T06:56:37;101257.06;;;6.08;100.00
65173;BME280;69059;52.218;5.172;2023-04-06T06:59:05;101264.06;;;6.07;100.00
65173;BME280;69059;52.218;5.172;2023-04-06T07:01:33;101255.84;;;6.12;100.00
65173;BME280;69059;52.218;5.172;2023-04-06T07:04:01;101236.59;;;6.15;100.00
65173;BME280;69059;52.218;5.172;2023-04-06T07:06:29;101249.97;;;6.10;100.00
65173;BME280;69059;52.218;5.172;2023-04-06T07:08:58;101243.81;;;6.21;100.00
65173;BME280;69059;52.218;5.172;2023-04-06T07:11:26;101227.31;;;6.12;100.00
65173;BME280;69059;52.218;5.172;2023-04-06T07:13:53;101227.75;;;6.07;100.00
65173;BME280;69059;52.218;5.172;2023-04-06T07:16:21;101221.84;;;6.25;100.00
65173;BME280;69059;52.218;5.172;2023-04-06T07:18:49;101225.09;;;6.27;100.00
65173;BME280;69059;52.218;5.172;2023-04-06T07:21:17;101216.91;;;6.31;100.00
65173;BME280;69059;52.218;5.172;2023-04-06T07:23:45;101225.06;;;6.36;100.00
65173;BME280;69059;52.218;5.172;2023-04-06T07:26:15;101223.13;;;6.48;100.00
65173;BME280;69059;52.218;5.172;2023-04-06T07:28:43;101216.97;;;6.49;100.00
65173;BME280;69059;52.218;5.172;2023-04-06T07:31:11;101220.22;;;6.61;100.00
65173;BME280;69059;52.218;5.172;2023-04-06T07:33:39;101235.84;;;6.78;100.00
65173;BME280;69059;52.218;5.172;2023-04-06T07:36:06;101224.56;;;6.70;100.00
65173;BME280;69059;52.218;5.172;2023-04-06T07:38:34;101217.53;;;6.80;100.00
65173;BME280;69059;52.218;5.172;2023-04-06T07:41:02;101225.13;;;6.91;100.00
65173;BME280;69059;52.218;5.172;2023-04-06T07:43:31;101218.31;;;6.90;100.00
65173;BME280;69059;52.218;5.172;2023-04-06T07:45:59;101214.75;;;6.91;100.00
65173;BME280;69059;52.218;5.172;2023-04-06T07:48:27;101223.06;;;6.95;100.00
65173;BME280;69059;52.218;5.172;2023-04-06T07:51:00;101221.19;;;6.87;100.00
65173;BME280;69059;52.218;5.172;2023-04-06T07:53:28;101221.22;;;7.05;100.00
65173;BME280;69059;52.218;5.172;2023-04-06T07:55:58;101222.38;;;7.20;100.00
65173;BME280;69059;52.218;5.172;2023-04-06T07:58:25;101220.97;;;7.43;100.00
65173;BME280;69059;52.218;5.172;2023-04-06T08:00:55;101229.94;;;7.49;100.00
65173;BME280;69059;52.218;5.172;2023-04-06T08:03:24;101234.13;;;7.42;100.00
65173;BME280;69059;52.218;5.172;2023-04-06T08:05:52;101225.72;;;7.48;100.00
65173;BME280;69059;52.218;5.172;2023-04-06T08:08:20;101225.72;;;7.66;100.00
65173;BME280;69059;52.218;5.172;2023-04-06T08:10:48;101228.38;;;7.91;100.00
65173;BME280;69059;52.218;5.172;2023-04-06T08:13:16;101239.91;;;7.71;100.00
65173;BME280;69059;52.218;5.172;2023-04-06T08:15:44;101239.75;;;7.55;100.00
65173;BME280;69059;52.218;5.172;2023-04-06T08:18:13;101230.91;;;7.66;100.00
65173;BME280;69059;52.218;5.172;2023-04-06T08:20:41;101221.19;;;7.68;100.00
65173;BME280;69059;52.218;5.172;2023-04-06T08:23:09;101220.28;;;7.95;100.00
65173;BME280;69059;52.218;5.172;2023-04-06T08:25:37;101202.47;;;7.82;100.00
65173;BME280;69059;52.218;5.172;2023-04-06T08:28:05;101232.59;;;7.93;100.00
65173;BME280;69059;52.218;5.172;2023-04-06T08:30:33;101209.69;;;8.40;100.00
65173;BME280;69059;52.218;5.172;2023-04-06T08:33:00;101223.22;;;8.25;100.00
65173;BME280;69059;52.218;5.172;2023-04-06T08:35:29;101228.44;;;8.25;100.00
65173;BME280;69059;52.218;5.172;2023-04-06T08:37:57;101225.97;;;8.42;100.00
65173;BME280;69059;52.218;5.172;2023-04-06T08:40:25;101219.97;;;8.49;100.00
65173;BME280;69059;52.218;5.172;2023-04-06T08:42:55;101217.75;;;8.62;100.00
65173;BME280;69059;52.218;5.172;2023-04-06T08:45:23;101216.47;;;9.09;100.00
65173;BME280;69059;52.218;5.172;2023-04-06T08:47:51;101219.56;;;9.04;100.00
65173;BME280;69059;52.218;5.172;2023-04-06T08:50:20;101221.84;;;8.99;100.00
65173;BME280;69059;52.218;5.172;2023-04-06T08:52:49;101218.28;;;9.08;100.00
65173;BME280;69059;52.218;5.172;2023-04-06T08:55:17;101218.94;;;9.10;100.00
65173;BME280;69059;52.218;5.172;2023-04-06T08:57:45;101216.84;;;9.22;100.00
65173;BME280;69059;52.218;5.172;2023-04-06T09:00:14;101193.50;;;9.04;100.00
65173;BME280;69059;52.218;5.172;2023-04-06T09:02:43;101198.56;;;9.06;100.00
65173;BME280;69059;52.218;5.172;2023-04-06T09:05:12;101191.41;;;9.16;100.00
65173;BME280;69059;52.218;5.172;2023-04-06T09:07:40;101205.75;;;9.28;100.00
65173;BME280;69059;52.218;5.172;2023-04-06T09:10:09;101202.28;;;9.03;100.00
65173;BME280;69059;52.218;5.172;2023-04-06T09:12:37;101213.69;;;9.02;100.00
65173;BME280;69059;52.218;5.172;2023-04-06T09:15:05;101192.59;;;8.71;100.00
65173;BME280;69059;52.218;5.172;2023-04-06T09:17:33;101174.22;;;8.73;100.00
65173;BME280;69059;52.218;5.172;2023-04-06T09:20:03;101172.59;;;8.72;100.00
65173;BME280;69059;52.218;5.172;2023-04-06T09:22:38;101169.31;;;8.70;100.00
65173;BME280;69059;52.218;5.172;2023-04-06T09:25:08;101132.56;;;8.73;100.00
65173;BME280;69059;52.218;5.172;2023-04-06T09:27:37;101138.78;;;8.88;100.00
65173;BME280;69059;52.218;5.172;2023-04-06T09:30:07;101133.41;;;8.89;100.00
65173;BME280;69059;52.218;5.172;2023-04-06T09:32:46;101125.94;;;8.94;100.00
65173;BME280;69059;52.218;5.172;2023-04-06T09:35:15;101108.97;;;8.74;100.00
65173;BME280;69059;52.218;5.172;2023-04-06T09:37:43;101065.34;;;8.60;100.00
65173;BME280;69059;52.218;5.172;2023-04-06T09:40:13;101060.31;;;8.58;100.00
65173;BME280;69059;52.218;5.172;2023-04-06T09:42:44;100994.59;;;8.48;100.00
65173;BME280;69059;52.218;5.172;2023-04-06T09:45:13;100984.97;;;8.49;100.00
65173;BME280;69059;52.218;5.172;2023-04-06T09:47:45;100926.13;;;8.48;100.00
65173;BME280;69059;52.218;5.172;2023-04-06T09:50:14;100917.81;;;8.36;100.00
65173;BME280;69059;52.218;5.172;2023-04-06T09:52:46;100902.81;;;8.30;100.00
65173;BME280;69059;52.218;5.172;2023-04-06T09:55:20;100841.06;;;8.40;100.00
65173;BME280;69059;52.218;5.172;2023-04-06T09:57:54;100830.00;;;8.54;100.00
65173;BME280;69059;52.218;5.172;2023-04-06T10:00:25;100830.81;;;8.55;100.00
65173;BME280;69059;52.218;5.172;2023-04-06T10:02:58;100821.31;;;8.86;100.00
65173;BME280;69059;52.218;5.172;2023-04-06T10:05:37;100838.44;;;8.65;100.00
65173;BME280;69059;52.218;5.172;2023-04-06T10:08:10;100858.94;;;8.68;100.00
65173;BME280;69059;52.218;5.172;2023-04-06T10:10:38;100851.91;;;8.76;100.00
65173;BME280;69059;52.218;5.172;2023-04-06T10:13:08;100858.78;;;8.61;100.00
65173;BME280;69059;52.218;5.172;2023-04-06T10:15:38;100868.69;;;8.74;100.00
65173;BME280;69059;52.218;5.172;2023-04-06T10:18:06;100845.28;;;8.66;100.00
65173;BME280;69059;52.218;5.172;2023-04-06T10:20:39;100814.88;;;8.58;100.00
65173;BME280;69059;52.218;5.172;2023-04-06T10:23:11;100791.16;;;8.37;100.00
65173;BME280;69059;52.218;5.172;2023-04-06T10:25:51;100743.34;;;8.46;100.00
65173;BME280;69059;52.218;5.172;2023-04-06T10:28:21;100696.28;;;8.63;100.00
65173;BME280;69059;52.218;5.172;2023-04-06T10:30:49;100657.94;;;8.49;100.00
65173;BME280;69059;52.218;5.172;2023-04-06T10:33:18;100645.16;;;8.40;100.00
65173;BME280;69059;52.218;5.172;2023-04-06T10:35:46;100626.13;;;8.39;100.00
65173;BME280;69059;52.218;5.172;2023-04-06T10:38:14;100603.53;;;8.40;100.00
65173;BME280;69059;52.218;5.172;2023-04-06T10:40:46;100559.94;;;8.42;100.00
65173;BME280;69059;52.218;5.172;2023-04-06T10:43:19;100533.31;;;8.62;100.00
65173;BME280;69059;52.218;5.172;2023-04-06T10:45:54;100502.88;;;8.63;100.00
65173;BME280;69059;52.218;5.172;2023-04-06T10:48:22;100469.81;;;8.49;100.00
65173;BME280;69059;52.218;5.172;2023-04-06T10:50:51;100451.78;;;8.47;100.00
65173;BME280;69059;52.218;5.172;2023-04-06T10:53:24;100357.25;;;8.55;100.00
65173;BME280;69059;52.218;5.172;2023-04-06T10:55:54;100321.44;;;8.19;100.00
65173;BME280;69059;52.218;5.172;2023-04-06T10:58:24;100256.69;;;8.10;100.00
65173;BME280;69059;52.218;5.172;2023-04-06T11:00:54;100213.91;;;8.12;100.00
65173;BME280;69059;52.218;5.172;2023-04-06T11:03:22;100152.50;;;7.97;100.00
65173;BME280;69059;52.218;5.172;2023-04-06T11:05:51;100103.19;;;8.18;100.00
65173;BME280;69059;52.218;5.172;2023-04-06T11:08:22;100074.88;;;8.08;100.00
65173;BME280;69059;52.218;5.172;2023-04-06T11:10:50;100040.31;;;8.14;100.00
65173;BME280;69059;52.218;5.172;2023-04-06T11:13:18;99994.44;;;8.21;100.00
65173;BME280;69059;52.218;5.172;2023-04-06T11:15:45;99946.25;;;8.25;100.00
65173;BME280;69059;52.218;5.172;2023-04-06T11:18:18;99919.94;;;8.14;100.00
65173;BME280;69059;52.218;5.172;2023-04-06T11:20:49;99867.06;;;8.07;100.00
65173;BME280;69059;52.218;5.172;2023-04-06T11:23:22;99810.31;;;8.32;100.00
65173;BME280;69059;52.218;5.172;2023-04-06T11:25:51;99776.53;;;8.32;100.00
65173;BME280;69059;52.218;5.172;2023-04-06T11:28:19;99736.59;;;8.46;100.00
65173;BME280;69059;52.218;5.172;2023-04-06T11:30:47;99735.03;;;8.51;100.00
65173;BME280;69059;52.218;5.172;2023-04-06T11:33:21;99731.03;;;8.27;100.00
65173;BME280;69059;52.218;5.172;2023-04-06T11:35:49;99729.53;;;8.33;100.00
65173;BME280;69059;52.218;5.172;2023-04-06T11:38:18;99704.22;;;8.48;100.00
65173;BME280;69059;52.218;5.172;2023-04-06T11:40:46;99707.63;;;8.27;100.00
65173;BME280;69059;52.218;5.172;2023-04-06T11:43:14;99693.00;;;8.20;100.00
65173;BME280;69059;52.218;5.172;2023-04-06T11:45:42;99670.84;;;8.31;100.00
65173;BME280;69059;52.218;5.172;2023-04-06T11:48:18;99668.19;;;8.17;100.00
65173;BME280;69059;52.218;5.172;2023-04-06T11:50:48;99667.53;;;8.09;100.00
65173;BME280;69059;52.218;5.172;2023-04-06T11:53:22;99629.00;;;8.25;100.00
65173;BME280;69059;52.218;5.172;2023-04-06T11:55:50;99598.78;;;8.18;100.00
65173;BME280;69059;52.218;5.172;2023-04-06T11:58:17;99590.19;;;8.24;100.00
65173;BME280;69059;52.218;5.172;2023-04-06T12:00:45;99575.75;;;8.08;100.00
65173;BME280;69059;52.218;5.172;2023-04-06T12:03:13;99562.88;;;8.00;100.00
65173;BME280;69059;52.218;5.172;2023-04-06T12:05:43;99530.34;;;8.11;100.00
65173;BME280;69059;52.218;5.172;2023-04-06T12:08:12;99503.56;;;8.10;100.00
65173;BME280;69059;52.218;5.172;2023-04-06T12:10:40;99496.91;;;8.01;100.00
65173;BME280;69059;52.218;5.172;2023-04-06T12:13:08;99463.22;;;8.27;100.00
65173;BME280;69059;52.218;5.172;2023-04-06T12:15:35;99435.50;;;8.48;100.00
65173;BME280;69059;52.218;5.172;2023-04-06T12:18:03;99430.06;;;8.49;100.00
65173;BME280;69059;52.218;5.172;2023-04-06T12:20:31;99444.38;;;8.12;100.00
65173;BME280;69059;52.218;5.172;2023-04-06T12:22:59;99439.59;;;8.09;100.00
65173;BME280;69059;52.218;5.172;2023-04-06T12:25:28;99416.03;;;8.31;100.00
65173;BME280;69059;52.218;5.172;2023-04-06T12:27:57;99418.38;;;8.12;100.00
65173;BME280;69059;52.218;5.172;2023-04-06T12:30:25;99415.75;;;7.99;100.00
65173;BME280;69059;52.218;5.172;2023-04-06T12:32:53;99407.59;;;8.09;100.00
65173;BME280;69059;52.218;5.172;2023-04-06T12:35:20;99376.34;;;7.89;100.00
65173;BME280;69059;52.218;5.172;2023-04-06T12:37:48;99395.16;;;8.04;100.00
65173;BME280;69059;52.218;5.172;2023-04-06T12:40:16;99396.34;;;8.02;100.00
65173;BME280;69059;52.218;5.172;2023-04-06T12:42:45;99394.53;;;7.89;100.00
65173;BME280;69059;52.218;5.172;2023-04-06T12:45:13;99389.72;;;7.86;100.00
65173;BME280;69059;52.218;5.172;2023-04-06T12:47:40;99404.50;;;7.79;100.00
65173;BME280;69059;52.218;5.172;2023-04-06T12:50:09;99396.13;;;7.90;100.00
65173;BME280;69059;52.218;5.172;2023-04-06T12:52:36;99399.09;;;7.80;100.00
65173;BME280;69059;52.218;5.172;2023-04-06T12:55:05;99400.50;;;7.83;100.00
65173;BME280;69059;52.218;5.172;2023-04-06T12:57:33;99405.06;;;7.74;100.00